sensor_id;sensor_type;location;lat;lon;timestamp;P1;durP1;ratioP1;P2;durP2;ratioP2
32876;SDS011;19226;51.600;8.034;2022-08-21T00:02:16;12.70;;;5.78;;
32876;SDS011;19226;51.600;8.034;2022-08-21T00:05:04;17.60;;;5.77;;
32876;SDS011;19226;51.600;8.034;2022-08-21T00:07:51;8.27;;;5.68;;
32876;SDS011;19226;51.600;8.034;2022-08-21T00:10:38;19.38;;;6.80;;
32876;SDS011;19226;51.600;8.034;2022-08-21T00:13:25;11.75;;;5.18;;
32876;SDS011;19226;51.600;8.034;2022-08-21T00:16:11;25.38;;;6.43;;
32876;SDS011;19226;51.600;8.034;2022-08-21T00:18:58;10.98;;;5.65;;
32876;SDS011;19226;51.600;8.034;2022-08-21T00:21:45;13.93;;;6.00;;
32876;SDS011;19226;51.600;8.034;2022-08-21T00:24:31;12.50;;;6.00;;
32876;SDS011;19226;51.600;8.034;2022-08-21T00:27:17;14.38;;;5.35;;
32876;SDS011;19226;51.600;8.034;2022-08-21T00:30:04;17.42;;;5.22;;
32876;SDS011;19226;51.600;8.034;2022-08-21T00:32:53;14.30;;;5.50;;
32876;SDS011;19226;51.600;8.034;2022-08-21T00:35:41;17.03;;;5.43;;
32876;SDS011;19226;51.600;8.034;2022-08-21T00:38:28;8.60;;;5.15;;
32876;SDS011;19226;51.600;8.034;2022-08-21T00:41:15;9.32;;;5.93;;
32876;SDS011;19226;51.600;8.034;2022-08-21T00:44:01;13.30;;;5.65;;
32876;SDS011;19226;51.600;8.034;2022-08-21T00:46:49;17.38;;;6.10;;
32876;SDS011;19226;51.600;8.034;2022-08-21T00:49:35;11.10;;;5.63;;
32876;SDS011;19226;51.600;8.034;2022-08-21T00:52:24;14.18;;;5.32;;
32876;SDS011;19226;51.600;8.034;2022-08-21T00:55:15;12.13;;;5.53;;
32876;SDS011;19226;51.600;8.034;2022-08-21T00:58:02;12.90;;;5.93;;
32876;SDS011;19226;51.600;8.034;2022-08-21T01:00:52;16.48;;;5.82;;
32876;SDS011;19226;51.600;8.034;2022-08-21T01:03:39;13.15;;;5.75;;
32876;SDS011;19226;51.600;8.034;2022-08-21T01:06:26;13.95;;;5.75;;
32876;SDS011;19226;51.600;8.034;2022-08-21T01:09:13;12.32;;;5.72;;
32876;SDS011;19226;51.600;8.034;2022-08-21T01:12:00;15.32;;;6.68;;
32876;SDS011;19226;51.600;8.034;2022-08-21T01:14:47;11.52;;;6.30;;
32876;SDS011;19226;51.600;8.034;2022-08-21T01:17:33;21.83;;;7.22;;
32876;SDS011;19226;51.600;8.034;2022-08-21T01:20:21;10.55;;;5.82;;
32876;SDS011;19226;51.600;8.034;2022-08-21T01:23:08;11.90;;;5.60;;
32876;SDS011;19226;51.600;8.034;2022-08-21T01:25:55;16.15;;;6.13;;
32876;SDS011;19226;51.600;8.034;2022-08-21T01:29:02;13.40;;;6.13;;
32876;SDS011;19226;51.600;8.034;2022-08-21T01:31:51;16.35;;;6.38;;
32876;SDS011;19226;51.600;8.034;2022-08-21T01:34:39;11.65;;;6.38;;
32876;SDS011;19226;51.600;8.034;2022-08-21T01:37:27;16.10;;;6.85;;
32876;SDS011;19226;51.600;8.034;2022-08-21T01:40:15;10.70;;;5.93;;
32876;SDS011;19226;51.600;8.034;2022-08-21T01:43:05;11.05;;;6.22;;
32876;SDS011;19226;51.600;8.034;2022-08-21T01:45:51;14.93;;;6.63;;
32876;SDS011;19226;51.600;8.034;2022-08-21T01:48:38;14.35;;;6.88;;
32876;SDS011;19226;51.600;8.034;2022-08-21T01:51:24;13.98;;;6.50;;
32876;SDS011;19226;51.600;8.034;2022-08-21T01:54:11;10.48;;;6.15;;
32876;SDS011;19226;51.600;8.034;2022-08-21T01:56:58;13.93;;;6.35;;
32876;SDS011;19226;51.600;8.034;2022-08-21T01:59:45;12.20;;;6.60;;
32876;SDS011;19226;51.600;8.034;2022-08-21T02:05:56;24.58;;;6.85;;
32876;SDS011;19226;51.600;8.034;2022-08-21T02:08:43;10.27;;;6.15;;
32876;SDS011;19226;51.600;8.034;2022-08-21T02:11:29;13.77;;;6.05;;
32876;SDS011;19226;51.600;8.034;2022-08-21T02:14:16;13.13;;;5.93;;
32876;SDS011;19226;51.600;8.034;2022-08-21T02:17:03;12.02;;;6.25;;
32876;SDS011;19226;51.600;8.034;2022-08-21T02:19:49;8.93;;;5.80;;
32876;SDS011;19226;51.600;8.034;2022-08-21T02:22:36;22.25;;;6.95;;
32876;SDS011;19226;51.600;8.034;2022-08-21T02:25:23;12.50;;;6.55;;
32876;SDS011;19226;51.600;8.034;2022-08-21T02:28:11;8.18;;;5.60;;
32876;SDS011;19226;51.600;8.034;2022-08-21T02:31:00;17.05;;;6.43;;
32876;SDS011;19226;51.600;8.034;2022-08-21T02:33:47;12.00;;;6.30;;
32876;SDS011;19226;51.600;8.034;2022-08-21T02:36:33;15.20;;;6.40;;
32876;SDS011;19226;51.600;8.034;2022-08-21T02:39:19;15.77;;;6.25;;
32876;SDS011;19226;51.600;8.034;2022-08-21T02:42:06;15.13;;;7.00;;
32876;SDS011;19226;51.600;8.034;2022-08-21T02:44:52;12.23;;;6.07;;
32876;SDS011;19226;51.600;8.034;2022-08-21T02:47:39;14.88;;;6.72;;
32876;SDS011;19226;51.600;8.034;2022-08-21T02:50:31;21.30;;;7.90;;
32876;SDS011;19226;51.600;8.034;2022-08-21T02:53:21;16.08;;;6.60;;
32876;SDS011;19226;51.600;8.034;2022-08-21T02:56:09;15.50;;;7.03;;
32876;SDS011;19226;51.600;8.034;2022-08-21T02:58:57;19.77;;;6.82;;
32876;SDS011;19226;51.600;8.034;2022-08-21T03:01:43;19.02;;;7.35;;
32876;SDS011;19226;51.600;8.034;2022-08-21T03:04:29;17.58;;;6.60;;
32876;SDS011;19226;51.600;8.034;2022-08-21T03:07:16;10.25;;;7.03;;
32876;SDS011;19226;51.600;8.034;2022-08-21T03:10:03;17.05;;;6.88;;
32876;SDS011;19226;51.600;8.034;2022-08-21T03:12:50;18.67;;;7.15;;
32876;SDS011;19226;51.600;8.034;2022-08-21T03:15:37;20.85;;;7.80;;
32876;SDS011;19226;51.600;8.034;2022-08-21T03:18:24;11.65;;;7.07;;
32876;SDS011;19226;51.600;8.034;2022-08-21T03:21:10;18.52;;;6.85;;
32876;SDS011;19226;51.600;8.034;2022-08-21T03:23:58;17.33;;;6.57;;
32876;SDS011;19226;51.600;8.034;2022-08-21T03:26:44;11.00;;;6.78;;
32876;SDS011;19226;51.600;8.034;2022-08-21T03:29:31;10.15;;;7.10;;
32876;SDS011;19226;51.600;8.034;2022-08-21T03:32:17;17.88;;;7.35;;
32876;SDS011;19226;51.600;8.034;2022-08-21T03:35:05;16.92;;;7.82;;
32876;SDS011;19226;51.600;8.034;2022-08-21T03:37:51;15.95;;;6.72;;
32876;SDS011;19226;51.600;8.034;2022-08-21T03:40:38;15.95;;;6.95;;
32876;SDS011;19226;51.600;8.034;2022-08-21T03:43:24;14.32;;;6.93;;
32876;SDS011;19226;51.600;8.034;2022-08-21T03:46:12;16.77;;;7.10;;
32876;SDS011;19226;51.600;8.034;2022-08-21T03:48:59;17.75;;;7.35;;
32876;SDS011;19226;51.600;8.034;2022-08-21T03:51:45;12.35;;;7.20;;
32876;SDS011;19226;51.600;8.034;2022-08-21T03:54:32;16.88;;;7.22;;
32876;SDS011;19226;51.600;8.034;2022-08-21T03:57:18;10.80;;;6.90;;
32876;SDS011;19226;51.600;8.034;2022-08-21T04:00:05;18.35;;;7.63;;
32876;SDS011;19226;51.600;8.034;2022-08-21T04:02:56;11.77;;;7.45;;
32876;SDS011;19226;51.600;8.034;2022-08-21T04:05:42;8.65;;;6.22;;
32876;SDS011;19226;51.600;8.034;2022-08-21T04:08:30;15.20;;;6.95;;
32876;SDS011;19226;51.600;8.034;2022-08-21T04:11:17;15.40;;;7.25;;
32876;SDS011;19226;51.600;8.034;2022-08-21T04:14:03;14.07;;;6.82;;
32876;SDS011;19226;51.600;8.034;2022-08-21T04:16:50;13.60;;;6.75;;
32876;SDS011;19226;51.600;8.034;2022-08-21T04:19:36;23.70;;;6.88;;
32876;SDS011;19226;51.600;8.034;2022-08-21T04:22:22;21.48;;;7.25;;
32876;SDS011;19226;51.600;8.034;2022-08-21T04:25:08;14.82;;;6.40;;
32876;SDS011;19226;51.600;8.034;2022-08-21T04:27:55;15.48;;;6.80;;
32876;SDS011;19226;51.600;8.034;2022-08-21T04:30:41;17.40;;;7.43;;
32876;SDS011;19226;51.600;8.034;2022-08-21T04:33:28;16.63;;;6.18;;
32876;SDS011;19226;51.600;8.034;2022-08-21T04:36:14;14.10;;;6.85;;
32876;SDS011;19226;51.600;8.034;2022-08-21T04:39:01;21.00;;;8.13;;
32876;SDS011;19226;51.600;8.034;2022-08-21T04:41:47;10.52;;;6.63;;
32876;SDS011;19226;51.600;8.034;2022-08-21T04:44:34;13.75;;;6.75;;
32876;SDS011;19226;51.600;8.034;2022-08-21T04:47:21;18.25;;;7.45;;
32876;SDS011;19226;51.600;8.034;2022-08-21T04:50:07;15.48;;;6.22;;
32876;SDS011;19226;51.600;8.034;2022-08-21T04:52:54;10.43;;;6.00;;
32876;SDS011;19226;51.600;8.034;2022-08-21T04:55:41;18.00;;;7.35;;
32876;SDS011;19226;51.600;8.034;2022-08-21T04:58:28;10.88;;;6.28;;
32876;SDS011;19226;51.600;8.034;2022-08-21T05:01:17;11.65;;;6.70;;
32876;SDS011;19226;51.600;8.034;2022-08-21T05:04:07;10.77;;;7.10;;
32876;SDS011;19226;51.600;8.034;2022-08-21T05:06:57;24.05;;;6.88;;
32876;SDS011;19226;51.600;8.034;2022-08-21T05:09:48;12.23;;;6.15;;
32876;SDS011;19226;51.600;8.034;2022-08-21T05:12:35;10.05;;;6.85;;
32876;SDS011;19226;51.600;8.034;2022-08-21T05:15:21;14.35;;;7.32;;
32876;SDS011;19226;51.600;8.034;2022-08-21T05:18:08;13.45;;;6.80;;
32876;SDS011;19226;51.600;8.034;2022-08-21T05:20:54;22.83;;;7.80;;
32876;SDS011;19226;51.600;8.034;2022-08-21T05:23:40;10.57;;;6.68;;
32876;SDS011;19226;51.600;8.034;2022-08-21T05:26:28;9.32;;;6.30;;
32876;SDS011;19226;51.600;8.034;2022-08-21T05:29:15;10.88;;;6.07;;
32876;SDS011;19226;51.600;8.034;2022-08-21T05:32:07;13.52;;;6.57;;
32876;SDS011;19226;51.600;8.034;2022-08-21T05:34:55;10.38;;;6.53;;
32876;SDS011;19226;51.600;8.034;2022-08-21T05:37:41;13.77;;;6.20;;
32876;SDS011;19226;51.600;8.034;2022-08-21T05:40:27;12.13;;;6.13;;
32876;SDS011;19226;51.600;8.034;2022-08-21T05:43:14;12.00;;;6.00;;
32876;SDS011;19226;51.600;8.034;2022-08-21T05:46:02;11.85;;;6.55;;
32876;SDS011;19226;51.600;8.034;2022-08-21T05:48:50;12.60;;;5.78;;
32876;SDS011;19226;51.600;8.034;2022-08-21T05:51:36;13.65;;;5.93;;
32876;SDS011;19226;51.600;8.034;2022-08-21T05:54:24;17.42;;;6.55;;
32876;SDS011;19226;51.600;8.034;2022-08-21T05:57:11;11.30;;;5.90;;
32876;SDS011;19226;51.600;8.034;2022-08-21T05:59:57;9.10;;;5.35;;
32876;SDS011;19226;51.600;8.034;2022-08-21T06:02:45;13.23;;;6.03;;
32876;SDS011;19226;51.600;8.034;2022-08-21T06:05:31;15.65;;;6.32;;
32876;SDS011;19226;51.600;8.034;2022-08-21T06:08:17;16.35;;;5.80;;
32876;SDS011;19226;51.600;8.034;2022-08-21T06:11:05;9.40;;;5.90;;
32876;SDS011;19226;51.600;8.034;2022-08-21T06:13:52;13.57;;;5.85;;
32876;SDS011;19226;51.600;8.034;2022-08-21T06:16:38;10.38;;;4.80;;
32876;SDS011;19226;51.600;8.034;2022-08-21T06:19:24;18.10;;;5.28;;
32876;SDS011;19226;51.600;8.034;2022-08-21T06:22:10;14.20;;;5.35;;
32876;SDS011;19226;51.600;8.034;2022-08-21T06:24:57;16.92;;;6.00;;
32876;SDS011;19226;51.600;8.034;2022-08-21T06:27:43;21.75;;;6.30;;
32876;SDS011;19226;51.600;8.034;2022-08-21T06:30:29;8.23;;;4.95;;
32876;SDS011;19226;51.600;8.034;2022-08-21T06:33:16;18.90;;;5.28;;
32876;SDS011;19226;51.600;8.034;2022-08-21T06:36:02;11.75;;;5.65;;
32876;SDS011;19226;51.600;8.034;2022-08-21T06:38:49;12.25;;;4.55;;
32876;SDS011;19226;51.600;8.034;2022-08-21T06:41:35;9.90;;;4.13;;
32876;SDS011;19226;51.600;8.034;2022-08-21T06:44:22;9.65;;;4.80;;
32876;SDS011;19226;51.600;8.034;2022-08-21T06:47:08;7.85;;;4.20;;
32876;SDS011;19226;51.600;8.034;2022-08-21T06:49:57;10.98;;;4.88;;
32876;SDS011;19226;51.600;8.034;2022-08-21T06:52:43;13.55;;;4.60;;
32876;SDS011;19226;51.600;8.034;2022-08-21T06:55:29;13.90;;;5.18;;
32876;SDS011;19226;51.600;8.034;2022-08-21T06:58:16;10.82;;;3.78;;
32876;SDS011;19226;51.600;8.034;2022-08-21T07:01:03;12.55;;;4.30;;
32876;SDS011;19226;51.600;8.034;2022-08-21T07:03:50;9.07;;;4.45;;
32876;SDS011;19226;51.600;8.034;2022-08-21T07:06:37;12.50;;;4.72;;
32876;SDS011;19226;51.600;8.034;2022-08-21T07:09:23;15.60;;;4.22;;
32876;SDS011;19226;51.600;8.034;2022-08-21T07:12:09;14.93;;;3.83;;
32876;SDS011;19226;51.600;8.034;2022-08-21T07:14:56;8.35;;;3.45;;
32876;SDS011;19226;51.600;8.034;2022-08-21T07:17:43;10.05;;;4.03;;
32876;SDS011;19226;51.600;8.034;2022-08-21T07:20:30;10.90;;;4.18;;
32876;SDS011;19226;51.600;8.034;2022-08-21T07:23:27;11.48;;;4.00;;
32876;SDS011;19226;51.600;8.034;2022-08-21T07:26:16;9.23;;;3.20;;
32876;SDS011;19226;51.600;8.034;2022-08-21T07:29:06;15.95;;;4.20;;
32876;SDS011;19226;51.600;8.034;2022-08-21T07:31:52;9.95;;;3.83;;
32876;SDS011;19226;51.600;8.034;2022-08-21T07:34:38;13.23;;;4.20;;
32876;SDS011;19226;51.600;8.034;2022-08-21T07:37:25;8.60;;;2.80;;
32876;SDS011;19226;51.600;8.034;2022-08-21T07:40:12;13.25;;;3.70;;
32876;SDS011;19226;51.600;8.034;2022-08-21T07:42:59;7.85;;;3.60;;
32876;SDS011;19226;51.600;8.034;2022-08-21T07:45:46;9.32;;;3.53;;
32876;SDS011;19226;51.600;8.034;2022-08-21T07:48:34;6.30;;;3.00;;
32876;SDS011;19226;51.600;8.034;2022-08-21T07:51:22;20.10;;;3.50;;
32876;SDS011;19226;51.600;8.034;2022-08-21T07:54:12;16.05;;;3.92;;
32876;SDS011;19226;51.600;8.034;2022-08-21T07:56:58;9.52;;;3.25;;
32876;SDS011;19226;51.600;8.034;2022-08-21T07:59:45;16.92;;;3.35;;
32876;SDS011;19226;51.600;8.034;2022-08-21T08:02:32;3.83;;;2.53;;
32876;SDS011;19226;51.600;8.034;2022-08-21T08:05:20;11.80;;;2.72;;
32876;SDS011;19226;51.600;8.034;2022-08-21T08:08:12;11.57;;;2.80;;
32876;SDS011;19226;51.600;8.034;2022-08-21T08:10:59;11.13;;;2.17;;
32876;SDS011;19226;51.600;8.034;2022-08-21T08:13:47;7.35;;;2.35;;
32876;SDS011;19226;51.600;8.034;2022-08-21T08:16:36;10.77;;;2.78;;
32876;SDS011;19226;51.600;8.034;2022-08-21T08:19:22;6.78;;;2.03;;
32876;SDS011;19226;51.600;8.034;2022-08-21T08:22:15;5.97;;;2.17;;
32876;SDS011;19226;51.600;8.034;2022-08-21T08:25:13;7.28;;;2.67;;
32876;SDS011;19226;51.600;8.034;2022-08-21T08:28:03;13.52;;;2.38;;
32876;SDS011;19226;51.600;8.034;2022-08-21T08:30:50;9.30;;;2.10;;
32876;SDS011;19226;51.600;8.034;2022-08-21T08:33:37;9.43;;;2.10;;
32876;SDS011;19226;51.600;8.034;2022-08-21T08:36:31;6.25;;;2.13;;
32876;SDS011;19226;51.600;8.034;2022-08-21T08:39:38;7.25;;;2.80;;
32876;SDS011;19226;51.600;8.034;2022-08-21T08:54:17;4.00;;;1.85;;
32876;SDS011;19226;51.600;8.034;2022-08-21T08:57:15;9.45;;;2.85;;
32876;SDS011;19226;51.600;8.034;2022-08-21T09:05:43;6.32;;;1.80;;
32876;SDS011;19226;51.600;8.034;2022-08-21T09:11:34;9.45;;;2.15;;
32876;SDS011;19226;51.600;8.034;2022-08-21T09:18:30;5.80;;;2.20;;
32876;SDS011;19226;51.600;8.034;2022-08-21T09:21:50;7.05;;;2.42;;
32876;SDS011;19226;51.600;8.034;2022-08-21T09:25:38;8.02;;;2.40;;
32876;SDS011;19226;51.600;8.034;2022-08-21T09:28:17;8.18;;;2.38;;
32876;SDS011;19226;51.600;8.034;2022-08-21T09:31:34;7.20;;;1.55;;
32876;SDS011;19226;51.600;8.034;2022-08-21T09:34:36;11.50;;;2.08;;
32876;SDS011;19226;51.600;8.034;2022-08-21T09:38:22;13.25;;;2.28;;
32876;SDS011;19226;51.600;8.034;2022-08-21T09:41:24;9.70;;;2.35;;
32876;SDS011;19226;51.600;8.034;2022-08-21T10:20:04;5.20;;;1.42;;
32876;SDS011;19226;51.600;8.034;2022-08-21T10:31:49;15.55;;;2.15;;
32876;SDS011;19226;51.600;8.034;2022-08-21T10:53:33;4.20;;;1.45;;
32876;SDS011;19226;51.600;8.034;2022-08-21T10:56:45;3.78;;;1.75;;
32876;SDS011;19226;51.600;8.034;2022-08-21T10:59:49;7.50;;;2.22;;
32876;SDS011;19226;51.600;8.034;2022-08-21T11:05:55;4.75;;;1.38;;
32876;SDS011;19226;51.600;8.034;2022-08-21T11:08:55;10.60;;;1.77;;
32876;SDS011;19226;51.600;8.034;2022-08-21T11:18:03;8.55;;;1.55;;
32876;SDS011;19226;51.600;8.034;2022-08-21T11:30:32;9.38;;;2.00;;
32876;SDS011;19226;51.600;8.034;2022-08-21T11:37:05;4.18;;;1.38;;
32876;SDS011;19226;51.600;8.034;2022-08-21T11:40:40;6.75;;;1.80;;
32876;SDS011;19226;51.600;8.034;2022-08-21T11:43:52;8.40;;;1.73;;
32876;SDS011;19226;51.600;8.034;2022-08-21T11:53:11;3.30;;;1.77;;
32876;SDS011;19226;51.600;8.034;2022-08-21T11:56:09;4.57;;;1.30;;
32876;SDS011;19226;51.600;8.034;2022-08-21T11:59:25;3.88;;;1.20;;
32876;SDS011;19226;51.600;8.034;2022-08-21T12:03:15;4.93;;;1.42;;
32876;SDS011;19226;51.600;8.034;2022-08-21T12:06:12;5.95;;;1.27;;
32876;SDS011;19226;51.600;8.034;2022-08-21T12:09:01;7.35;;;1.25;;
32876;SDS011;19226;51.600;8.034;2022-08-21T12:11:59;5.07;;;1.60;;
32876;SDS011;19226;51.600;8.034;2022-08-21T12:15:04;7.75;;;1.60;;
32876;SDS011;19226;51.600;8.034;2022-08-21T12:18:02;3.00;;;1.27;;
32876;SDS011;19226;51.600;8.034;2022-08-21T12:21:17;5.53;;;1.42;;
32876;SDS011;19226;51.600;8.034;2022-08-21T12:27:19;5.10;;;1.20;;
32876;SDS011;19226;51.600;8.034;2022-08-21T12:30:34;4.60;;;1.05;;
32876;SDS011;19226;51.600;8.034;2022-08-21T12:33:26;1.85;;;1.00;;
32876;SDS011;19226;51.600;8.034;2022-08-21T12:36:26;4.93;;;0.90;;
32876;SDS011;19226;51.600;8.034;2022-08-21T12:39:29;5.32;;;1.10;;
32876;SDS011;19226;51.600;8.034;2022-08-21T12:42:20;2.63;;;0.90;;
32876;SDS011;19226;51.600;8.034;2022-08-21T12:45:44;9.55;;;1.83;;
32876;SDS011;19226;51.600;8.034;2022-08-21T12:48:48;6.43;;;1.30;;
32876;SDS011;19226;51.600;8.034;2022-08-21T12:55:14;4.22;;;1.42;;
32876;SDS011;19226;51.600;8.034;2022-08-21T12:58:20;2.90;;;1.00;;
32876;SDS011;19226;51.600;8.034;2022-08-21T13:01:17;2.47;;;1.08;;
32876;SDS011;19226;51.600;8.034;2022-08-21T13:04:15;6.60;;;1.25;;
32876;SDS011;19226;51.600;8.034;2022-08-21T13:07:06;2.85;;;1.33;;
32876;SDS011;19226;51.600;8.034;2022-08-21T13:10:14;1.30;;;0.82;;
32876;SDS011;19226;51.600;8.034;2022-08-21T13:13:22;4.60;;;1.45;;
32876;SDS011;19226;51.600;8.034;2022-08-21T13:16:11;4.53;;;1.10;;
32876;SDS011;19226;51.600;8.034;2022-08-21T13:19:00;4.50;;;0.80;;
32876;SDS011;19226;51.600;8.034;2022-08-21T13:21:48;4.85;;;1.35;;
32876;SDS011;19226;51.600;8.034;2022-08-21T13:24:36;3.25;;;1.00;;
32876;SDS011;19226;51.600;8.034;2022-08-21T13:27:27;7.10;;;0.75;;
32876;SDS011;19226;51.600;8.034;2022-08-21T13:30:20;3.28;;;0.80;;
32876;SDS011;19226;51.600;8.034;2022-08-21T13:33:08;6.43;;;3.22;;
32876;SDS011;19226;51.600;8.034;2022-08-21T13:38:42;3.35;;;1.00;;
32876;SDS011;19226;51.600;8.034;2022-08-21T13:41:32;11.70;;;6.60;;
32876;SDS011;19226;51.600;8.034;2022-08-21T13:44:31;3.95;;;1.30;;
32876;SDS011;19226;51.600;8.034;2022-08-21T13:47:39;2.40;;;1.40;;
32876;SDS011;19226;51.600;8.034;2022-08-21T13:50:26;2.63;;;0.93;;
32876;SDS011;19226;51.600;8.034;2022-08-21T13:53:47;4.53;;;0.90;;
32876;SDS011;19226;51.600;8.034;2022-08-21T13:56:33;3.45;;;1.58;;
32876;SDS011;19226;51.600;8.034;2022-08-21T13:59:45;1.60;;;0.80;;
32876;SDS011;19226;51.600;8.034;2022-08-21T14:02:37;1.88;;;0.75;;
32876;SDS011;19226;51.600;8.034;2022-08-21T14:05:29;2.05;;;0.47;;
32876;SDS011;19226;51.600;8.034;2022-08-21T14:08:32;4.80;;;0.52;;
32876;SDS011;19226;51.600;8.034;2022-08-21T14:11:20;4.63;;;0.80;;
32876;SDS011;19226;51.600;8.034;2022-08-21T14:14:19;1.25;;;0.50;;
32876;SDS011;19226;51.600;8.034;2022-08-21T14:17:07;1.52;;;0.73;;
32876;SDS011;19226;51.600;8.034;2022-08-21T14:19:57;2.00;;;0.75;;
32876;SDS011;19226;51.600;8.034;2022-08-21T14:22:45;1.08;;;0.32;;
32876;SDS011;19226;51.600;8.034;2022-08-21T14:25:43;2.40;;;0.50;;
32876;SDS011;19226;51.600;8.034;2022-08-21T14:28:31;1.90;;;0.55;;
32876;SDS011;19226;51.600;8.034;2022-08-21T14:31:30;3.15;;;0.85;;
32876;SDS011;19226;51.600;8.034;2022-08-21T14:34:21;2.80;;;0.45;;
32876;SDS011;19226;51.600;8.034;2022-08-21T14:37:11;2.10;;;0.50;;
32876;SDS011;19226;51.600;8.034;2022-08-21T14:39:57;1.30;;;0.63;;
32876;SDS011;19226;51.600;8.034;2022-08-21T14:42:44;2.17;;;0.65;;
32876;SDS011;19226;51.600;8.034;2022-08-21T14:45:31;2.28;;;0.60;;
32876;SDS011;19226;51.600;8.034;2022-08-21T14:48:23;2.63;;;0.50;;
32876;SDS011;19226;51.600;8.034;2022-08-21T14:51:10;1.48;;;0.57;;
32876;SDS011;19226;51.600;8.034;2022-08-21T14:53:56;1.33;;;0.50;;
32876;SDS011;19226;51.600;8.034;2022-08-21T14:56:44;1.00;;;0.40;;
32876;SDS011;19226;51.600;8.034;2022-08-21T14:59:35;0.77;;;0.40;;
32876;SDS011;19226;51.600;8.034;2022-08-21T15:02:23;1.77;;;0.75;;
32876;SDS011;19226;51.600;8.034;2022-08-21T15:05:13;1.20;;;0.52;;
32876;SDS011;19226;51.600;8.034;2022-08-21T15:08:03;2.10;;;0.60;;
32876;SDS011;19226;51.600;8.034;2022-08-21T15:10:51;2.28;;;0.70;;
32876;SDS011;19226;51.600;8.034;2022-08-21T15:13:39;1.23;;;0.60;;
32876;SDS011;19226;51.600;8.034;2022-08-21T15:16:27;1.45;;;0.60;;
32876;SDS011;19226;51.600;8.034;2022-08-21T15:19:17;2.17;;;1.00;;
32876;SDS011;19226;51.600;8.034;2022-08-21T15:22:04;2.38;;;0.70;;
32876;SDS011;19226;51.600;8.034;2022-08-21T15:24:56;2.03;;;0.70;;
32876;SDS011;19226;51.600;8.034;2022-08-21T15:27:43;2.28;;;0.75;;
32876;SDS011;19226;51.600;8.034;2022-08-21T15:30:30;4.88;;;0.80;;
32876;SDS011;19226;51.600;8.034;2022-08-21T15:36:04;1.30;;;0.98;;
32876;SDS011;19226;51.600;8.034;2022-08-21T15:38:51;2.88;;;0.95;;
32876;SDS011;19226;51.600;8.034;2022-08-21T15:41:37;1.40;;;0.70;;
32876;SDS011;19226;51.600;8.034;2022-08-21T15:44:23;1.30;;;0.60;;
32876;SDS011;19226;51.600;8.034;2022-08-21T15:47:14;2.05;;;0.65;;
32876;SDS011;19226;51.600;8.034;2022-08-21T15:50:05;6.43;;;0.60;;
32876;SDS011;19226;51.600;8.034;2022-08-21T15:52:56;3.75;;;0.63;;
32876;SDS011;19226;51.600;8.034;2022-08-21T15:55:45;2.70;;;0.70;;
32876;SDS011;19226;51.600;8.034;2022-08-21T15:58:32;1.38;;;0.50;;
32876;SDS011;19226;51.600;8.034;2022-08-21T16:01:19;2.47;;;0.60;;
32876;SDS011;19226;51.600;8.034;2022-08-21T16:04:07;2.83;;;0.93;;
32876;SDS011;19226;51.600;8.034;2022-08-21T16:07:07;3.08;;;0.65;;
32876;SDS011;19226;51.600;8.034;2022-08-21T16:09:58;2.38;;;0.38;;
32876;SDS011;19226;51.600;8.034;2022-08-21T16:12:46;2.63;;;0.98;;
32876;SDS011;19226;51.600;8.034;2022-08-21T16:15:44;2.80;;;0.93;;
32876;SDS011;19226;51.600;8.034;2022-08-21T16:18:30;2.10;;;0.75;;
32876;SDS011;19226;51.600;8.034;2022-08-21T16:21:17;1.33;;;0.70;;
32876;SDS011;19226;51.600;8.034;2022-08-21T16:24:04;2.92;;;1.10;;
32876;SDS011;19226;51.600;8.034;2022-08-21T16:26:54;2.17;;;0.70;;
32876;SDS011;19226;51.600;8.034;2022-08-21T16:29:48;3.30;;;0.70;;
32876;SDS011;19226;51.600;8.034;2022-08-21T16:32:34;1.70;;;0.88;;
32876;SDS011;19226;51.600;8.034;2022-08-21T16:35:21;2.50;;;0.77;;
32876;SDS011;19226;51.600;8.034;2022-08-21T16:38:09;1.55;;;0.65;;
32876;SDS011;19226;51.600;8.034;2022-08-21T16:41:02;4.15;;;0.63;;
32876;SDS011;19226;51.600;8.034;2022-08-21T16:43:54;7.40;;;0.85;;
32876;SDS011;19226;51.600;8.034;2022-08-21T16:46:41;1.00;;;0.60;;
32876;SDS011;19226;51.600;8.034;2022-08-21T16:49:27;1.20;;;0.60;;
32876;SDS011;19226;51.600;8.034;2022-08-21T16:52:14;2.05;;;0.60;;
32876;SDS011;19226;51.600;8.034;2022-08-21T16:55:01;1.17;;;0.55;;
32876;SDS011;19226;51.600;8.034;2022-08-21T17:00:36;3.30;;;1.60;;
32876;SDS011;19226;51.600;8.034;2022-08-21T17:03:25;5.90;;;1.05;;
32876;SDS011;19226;51.600;8.034;2022-08-21T17:06:20;3.15;;;0.60;;
32876;SDS011;19226;51.600;8.034;2022-08-21T17:09:07;5.10;;;0.80;;
32876;SDS011;19226;51.600;8.034;2022-08-21T17:11:53;2.42;;;0.95;;
32876;SDS011;19226;51.600;8.034;2022-08-21T17:14:39;4.88;;;1.10;;
32876;SDS011;19226;51.600;8.034;2022-08-21T17:17:26;2.60;;;0.93;;
32876;SDS011;19226;51.600;8.034;2022-08-21T17:20:12;1.13;;;0.95;;
32876;SDS011;19226;51.600;8.034;2022-08-21T17:23:00;3.23;;;0.90;;
32876;SDS011;19226;51.600;8.034;2022-08-21T17:25:47;2.58;;;0.70;;
32876;SDS011;19226;51.600;8.034;2022-08-21T17:28:36;2.05;;;0.63;;
32876;SDS011;19226;51.600;8.034;2022-08-21T17:31:23;2.40;;;0.60;;
32876;SDS011;19226;51.600;8.034;2022-08-21T17:34:09;1.48;;;0.70;;
32876;SDS011;19226;51.600;8.034;2022-08-21T17:36:57;3.58;;;0.77;;
32876;SDS011;19226;51.600;8.034;2022-08-21T17:39:44;2.38;;;0.80;;
32876;SDS011;19226;51.600;8.034;2022-08-21T17:42:31;2.95;;;1.10;;
32876;SDS011;19226;51.600;8.034;2022-08-21T17:45:19;0.80;;;0.63;;
